sensor_id;sensor_type;location;lat;lon;timestamp;P1;durP1;ratioP1;P2;durP2;ratioP2
15358;SDS011;7779;49.596;11.070;2023-04-25T00:01:30;2.23;;;2.03;;
15358;SDS011;7779;49.596;11.070;2023-04-25T00:03:57;3.10;;;1.73;;
15358;SDS011;7779;49.596;11.070;2023-04-25T00:06:22;2.13;;;1.87;;
15358;SDS011;7779;49.596;11.070;2023-04-25T00:08:51;3.03;;;1.93;;
15358;SDS011;7779;49.596;11.070;2023-04-25T00:11:18;2.20;;;2.00;;
15358;SDS011;7779;49.596;11.070;2023-04-25T00:13:44;2.20;;;1.90;;
15358;SDS011;7779;49.596;11.070;2023-04-25T00:16:11;2.80;;;1.73;;
15358;SDS011;7779;49.596;11.070;2023-04-25T00:18:39;2.43;;;1.87;;
15358;SDS011;7779;49.596;11.070;2023-04-25T00:21:06;1.80;;;1.70;;
15358;SDS011;7779;49.596;11.070;2023-04-25T00:23:32;2.07;;;1.87;;
15358;SDS011;7779;49.596;11.070;2023-04-25T00:26:00;1.90;;;1.80;;
15358;SDS011;7779;49.596;11.070;2023-04-25T00:28:26;1.67;;;1.53;;
15358;SDS011;7779;49.596;11.070;2023-04-25T00:30:52;1.93;;;1.77;;
15358;SDS011;7779;49.596;11.070;2023-04-25T00:33:17;2.80;;;2.10;;
15358;SDS011;7779;49.596;11.070;2023-04-25T00:35:43;2.20;;;2.00;;
15358;SDS011;7779;49.596;11.070;2023-04-25T00:38:09;2.33;;;2.13;;
15358;SDS011;7779;49.596;11.070;2023-04-25T00:40:34;2.43;;;2.00;;
15358;SDS011;7779;49.596;11.070;2023-04-25T00:43:00;1.80;;;1.70;;
15358;SDS011;7779;49.596;11.070;2023-04-25T00:45:27;1.90;;;1.50;;
15358;SDS011;7779;49.596;11.070;2023-04-25T00:47:54;1.93;;;1.73;;
15358;SDS011;7779;49.596;11.070;2023-04-25T00:50:21;2.17;;;1.70;;
15358;SDS011;7779;49.596;11.070;2023-04-25T00:52:48;1.90;;;1.73;;
15358;SDS011;7779;49.596;11.070;2023-04-25T00:55:14;1.83;;;1.63;;
15358;SDS011;7779;49.596;11.070;2023-04-25T00:57:41;1.70;;;1.60;;
15358;SDS011;7779;49.596;11.070;2023-04-25T01:00:07;1.47;;;1.37;;
15358;SDS011;7779;49.596;11.070;2023-04-25T01:02:35;1.77;;;1.67;;
15358;SDS011;7779;49.596;11.070;2023-04-25T01:05:02;1.73;;;1.63;;
15358;SDS011;7779;49.596;11.070;2023-04-25T01:07:29;1.77;;;1.60;;
15358;SDS011;7779;49.596;11.070;2023-04-25T01:09:55;1.70;;;1.60;;
15358;SDS011;7779;49.596;11.070;2023-04-25T01:12:21;1.60;;;1.50;;
15358;SDS011;7779;49.596;11.070;2023-04-25T01:14:48;2.03;;;1.83;;
15358;SDS011;7779;49.596;11.070;2023-04-25T01:17:14;2.10;;;1.80;;
15358;SDS011;7779;49.596;11.070;2023-04-25T01:19:41;1.73;;;1.63;;
15358;SDS011;7779;49.596;11.070;2023-04-25T01:22:07;2.63;;;1.70;;
15358;SDS011;7779;49.596;11.070;2023-04-25T01:24:35;1.87;;;1.63;;
15358;SDS011;7779;49.596;11.070;2023-04-25T01:27:02;1.90;;;1.80;;
15358;SDS011;7779;49.596;11.070;2023-04-25T01:29:28;1.93;;;1.73;;
15358;SDS011;7779;49.596;11.070;2023-04-25T01:31:55;1.40;;;1.30;;
15358;SDS011;7779;49.596;11.070;2023-04-25T01:34:23;1.47;;;1.33;;
15358;SDS011;7779;49.596;11.070;2023-04-25T01:36:50;1.70;;;1.50;;
15358;SDS011;7779;49.596;11.070;2023-04-25T01:39:17;1.40;;;1.30;;
15358;SDS011;7779;49.596;11.070;2023-04-25T01:41:44;1.70;;;1.60;;
15358;SDS011;7779;49.596;11.070;2023-04-25T01:44:14;1.83;;;1.50;;
15358;SDS011;7779;49.596;11.070;2023-04-25T01:46:40;1.63;;;1.50;;
15358;SDS011;7779;49.596;11.070;2023-04-25T01:49:06;2.03;;;1.50;;
15358;SDS011;7779;49.596;11.070;2023-04-25T01:51:32;1.77;;;1.57;;
15358;SDS011;7779;49.596;11.070;2023-04-25T01:53:59;1.60;;;1.50;;
15358;SDS011;7779;49.596;11.070;2023-04-25T01:56:29;2.13;;;1.93;;
15358;SDS011;7779;49.596;11.070;2023-04-25T01:58:56;2.13;;;1.50;;
15358;SDS011;7779;49.596;11.070;2023-04-25T02:01:43;1.83;;;1.73;;
15358;SDS011;7779;49.596;11.070;2023-04-25T02:04:21;2.63;;;1.70;;
15358;SDS011;7779;49.596;11.070;2023-04-25T02:06:47;2.33;;;1.50;;
15358;SDS011;7779;49.596;11.070;2023-04-25T02:09:13;1.67;;;1.50;;
15358;SDS011;7779;49.596;11.070;2023-04-25T02:11:44;2.03;;;1.70;;
15358;SDS011;7779;49.596;11.070;2023-04-25T02:14:23;1.73;;;1.63;;
15358;SDS011;7779;49.596;11.070;2023-04-25T02:17:03;1.80;;;1.70;;
15358;SDS011;7779;49.596;11.070;2023-04-25T02:19:31;1.77;;;1.60;;
15358;SDS011;7779;49.596;11.070;2023-04-25T02:21:56;1.80;;;1.70;;
15358;SDS011;7779;49.596;11.070;2023-04-25T02:24:23;1.60;;;1.50;;
15358;SDS011;7779;49.596;11.070;2023-04-25T02:26:49;1.60;;;1.50;;
15358;SDS011;7779;49.596;11.070;2023-04-25T02:29:15;1.80;;;1.70;;
15358;SDS011;7779;49.596;11.070;2023-04-25T02:31:41;1.63;;;1.53;;
15358;SDS011;7779;49.596;11.070;2023-04-25T02:34:07;1.80;;;1.70;;
15358;SDS011;7779;49.596;11.070;2023-04-25T02:36:36;1.70;;;1.60;;
15358;SDS011;7779;49.596;11.070;2023-04-25T02:39:01;1.50;;;1.40;;
15358;SDS011;7779;49.596;11.070;2023-04-25T02:41:28;1.60;;;1.50;;
15358;SDS011;7779;49.596;11.070;2023-04-25T02:43:54;2.50;;;1.43;;
15358;SDS011;7779;49.596;11.070;2023-04-25T02:46:20;1.73;;;1.63;;
15358;SDS011;7779;49.596;11.070;2023-04-25T02:48:46;2.43;;;1.50;;
15358;SDS011;7779;49.596;11.070;2023-04-25T02:51:11;1.60;;;1.50;;
15358;SDS011;7779;49.596;11.070;2023-04-25T02:53:37;1.93;;;1.50;;
15358;SDS011;7779;49.596;11.070;2023-04-25T02:56:03;1.97;;;1.40;;
15358;SDS011;7779;49.596;11.070;2023-04-25T02:58:29;1.43;;;1.33;;
15358;SDS011;7779;49.596;11.070;2023-04-25T03:00:55;2.40;;;1.50;;
15358;SDS011;7779;49.596;11.070;2023-04-25T03:03:21;1.70;;;1.60;;
15358;SDS011;7779;49.596;11.070;2023-04-25T03:05:50;2.17;;;1.57;;
15358;SDS011;7779;49.596;11.070;2023-04-25T03:08:21;2.27;;;1.70;;
15358;SDS011;7779;49.596;11.070;2023-04-25T03:10:47;2.07;;;1.87;;
15358;SDS011;7779;49.596;11.070;2023-04-25T03:13:15;2.07;;;1.67;;
15358;SDS011;7779;49.596;11.070;2023-04-25T03:15:43;1.87;;;1.67;;
15358;SDS011;7779;49.596;11.070;2023-04-25T03:18:09;1.67;;;1.57;;
15358;SDS011;7779;49.596;11.070;2023-04-25T03:20:35;1.70;;;1.60;;
15358;SDS011;7779;49.596;11.070;2023-04-25T03:23:02;1.77;;;1.60;;
15358;SDS011;7779;49.596;11.070;2023-04-25T03:25:28;2.60;;;1.70;;
15358;SDS011;7779;49.596;11.070;2023-04-25T03:27:54;2.63;;;1.63;;
15358;SDS011;7779;49.596;11.070;2023-04-25T03:30:20;1.87;;;1.77;;
15358;SDS011;7779;49.596;11.070;2023-04-25T03:32:47;2.67;;;1.70;;
15358;SDS011;7779;49.596;11.070;2023-04-25T03:35:15;1.67;;;1.57;;
15358;SDS011;7779;49.596;11.070;2023-04-25T03:37:41;3.90;;;1.70;;
15358;SDS011;7779;49.596;11.070;2023-04-25T03:40:12;1.77;;;1.67;;
15358;SDS011;7779;49.596;11.070;2023-04-25T03:43:06;2.30;;;1.83;;
15358;SDS011;7779;49.596;11.070;2023-04-25T03:45:33;2.70;;;1.60;;
15358;SDS011;7779;49.596;11.070;2023-04-25T03:47:58;1.80;;;1.60;;
15358;SDS011;7779;49.596;11.070;2023-04-25T03:50:26;2.13;;;1.60;;
15358;SDS011;7779;49.596;11.070;2023-04-25T03:52:52;2.37;;;1.80;;
15358;SDS011;7779;49.596;11.070;2023-04-25T03:55:18;2.00;;;1.83;;
15358;SDS011;7779;49.596;11.070;2023-04-25T03:57:44;2.30;;;2.10;;
15358;SDS011;7779;49.596;11.070;2023-04-25T04:00:10;2.50;;;2.20;;
15358;SDS011;7779;49.596;11.070;2023-04-25T04:02:39;2.50;;;2.20;;
15358;SDS011;7779;49.596;11.070;2023-04-25T04:05:06;3.07;;;2.33;;
15358;SDS011;7779;49.596;11.070;2023-04-25T04:07:35;2.30;;;2.10;;
15358;SDS011;7779;49.596;11.070;2023-04-25T04:10:06;3.97;;;2.70;;
15358;SDS011;7779;49.596;11.070;2023-04-25T04:12:36;2.60;;;2.20;;
15358;SDS011;7779;49.596;11.070;2023-04-25T04:15:05;2.50;;;2.30;;
15358;SDS011;7779;49.596;11.070;2023-04-25T04:17:33;3.67;;;2.50;;
15358;SDS011;7779;49.596;11.070;2023-04-25T04:19:59;2.57;;;2.37;;
15358;SDS011;7779;49.596;11.070;2023-04-25T04:22:28;2.60;;;2.30;;
15358;SDS011;7779;49.596;11.070;2023-04-25T04:24:57;2.23;;;1.90;;
15358;SDS011;7779;49.596;11.070;2023-04-25T04:27:58;2.53;;;2.33;;
15358;SDS011;7779;49.596;11.070;2023-04-25T04:30:39;3.30;;;3.00;;
15358;SDS011;7779;49.596;11.070;2023-04-25T04:33:07;2.77;;;2.53;;
15358;SDS011;7779;49.596;11.070;2023-04-25T04:35:34;2.60;;;2.40;;
15358;SDS011;7779;49.596;11.070;2023-04-25T04:38:00;2.87;;;2.27;;
15358;SDS011;7779;49.596;11.070;2023-04-25T04:40:30;2.93;;;2.53;;
15358;SDS011;7779;49.596;11.070;2023-04-25T04:43:09;3.93;;;2.80;;
15358;SDS011;7779;49.596;11.070;2023-04-25T04:46:10;2.60;;;2.17;;
15358;SDS011;7779;49.596;11.070;2023-04-25T04:48:49;2.87;;;2.30;;
15358;SDS011;7779;49.596;11.070;2023-04-25T04:51:28;2.70;;;2.50;;
15358;SDS011;7779;49.596;11.070;2023-04-25T04:54:07;3.13;;;2.30;;
15358;SDS011;7779;49.596;11.070;2023-04-25T04:56:51;2.50;;;2.30;;
15358;SDS011;7779;49.596;11.070;2023-04-25T04:59:35;2.93;;;2.63;;
15358;SDS011;7779;49.596;11.070;2023-04-25T05:02:20;2.43;;;2.23;;
15358;SDS011;7779;49.596;11.070;2023-04-25T05:05:00;3.77;;;2.47;;
15358;SDS011;7779;49.596;11.070;2023-04-25T05:07:49;2.77;;;2.23;;
15358;SDS011;7779;49.596;11.070;2023-04-25T05:10:25;3.87;;;2.50;;
15358;SDS011;7779;49.596;11.070;2023-04-25T05:13:02;2.50;;;2.30;;
15358;SDS011;7779;49.596;11.070;2023-04-25T05:15:57;2.10;;;1.90;;
15358;SDS011;7779;49.596;11.070;2023-04-25T05:18:52;2.13;;;1.90;;
15358;SDS011;7779;49.596;11.070;2023-04-25T05:21:27;2.23;;;2.03;;
15358;SDS011;7779;49.596;11.070;2023-04-25T05:24:12;2.30;;;2.10;;
15358;SDS011;7779;49.596;11.070;2023-04-25T05:27:08;2.13;;;2.00;;
15358;SDS011;7779;49.596;11.070;2023-04-25T05:30:00;2.07;;;1.90;;
15358;SDS011;7779;49.596;11.070;2023-04-25T05:32:35;2.40;;;1.80;;
15358;SDS011;7779;49.596;11.070;2023-04-25T05:35:02;2.53;;;1.70;;
15358;SDS011;7779;49.596;11.070;2023-04-25T05:37:34;2.00;;;1.80;;
15358;SDS011;7779;49.596;11.070;2023-04-25T05:40:11;1.57;;;1.47;;
15358;SDS011;7779;49.596;11.070;2023-04-25T05:43:00;2.00;;;1.80;;
15358;SDS011;7779;49.596;11.070;2023-04-25T05:45:45;1.70;;;1.60;;
15358;SDS011;7779;49.596;11.070;2023-04-25T05:48:29;1.70;;;1.60;;
15358;SDS011;7779;49.596;11.070;2023-04-25T05:50:59;1.80;;;1.70;;
15358;SDS011;7779;49.596;11.070;2023-04-25T05:53:46;1.77;;;1.67;;
15358;SDS011;7779;49.596;11.070;2023-04-25T05:56:13;3.63;;;1.70;;
15358;SDS011;7779;49.596;11.070;2023-04-25T05:58:39;2.53;;;2.13;;
15358;SDS011;7779;49.596;11.070;2023-04-25T06:01:06;3.13;;;2.17;;
15358;SDS011;7779;49.596;11.070;2023-04-25T06:03:32;3.73;;;1.93;;
15358;SDS011;7779;49.596;11.070;2023-04-25T06:05:58;2.03;;;1.90;;
15358;SDS011;7779;49.596;11.070;2023-04-25T06:08:24;2.30;;;1.80;;
15358;SDS011;7779;49.596;11.070;2023-04-25T06:10:50;2.67;;;2.10;;
15358;SDS011;7779;49.596;11.070;2023-04-25T06:13:16;2.17;;;1.97;;
15358;SDS011;7779;49.596;11.070;2023-04-25T06:15:42;2.43;;;2.17;;
15358;SDS011;7779;49.596;11.070;2023-04-25T06:18:08;3.70;;;2.20;;
15358;SDS011;7779;49.596;11.070;2023-04-25T06:20:33;3.60;;;2.13;;
15358;SDS011;7779;49.596;11.070;2023-04-25T06:23:00;2.93;;;2.43;;
15358;SDS011;7779;49.596;11.070;2023-04-25T06:25:35;2.40;;;2.20;;
15358;SDS011;7779;49.596;11.070;2023-04-25T06:28:01;2.47;;;2.27;;
15358;SDS011;7779;49.596;11.070;2023-04-25T06:30:28;3.90;;;2.30;;
15358;SDS011;7779;49.596;11.070;2023-04-25T06:32:59;2.80;;;2.23;;
15358;SDS011;7779;49.596;11.070;2023-04-25T06:35:27;2.90;;;2.70;;
15358;SDS011;7779;49.596;11.070;2023-04-25T06:37:53;2.97;;;2.77;;
15358;SDS011;7779;49.596;11.070;2023-04-25T06:40:21;3.53;;;2.73;;
15358;SDS011;7779;49.596;11.070;2023-04-25T06:42:47;3.27;;;2.97;;
15358;SDS011;7779;49.596;11.070;2023-04-25T06:45:44;4.30;;;2.70;;
15358;SDS011;7779;49.596;11.070;2023-04-25T06:48:10;3.37;;;3.00;;
15358;SDS011;7779;49.596;11.070;2023-04-25T06:50:36;4.10;;;2.90;;
15358;SDS011;7779;49.596;11.070;2023-04-25T06:53:02;4.03;;;3.33;;
15358;SDS011;7779;49.596;11.070;2023-04-25T06:55:29;4.07;;;3.50;;
15358;SDS011;7779;49.596;11.070;2023-04-25T06:58:07;3.77;;;3.10;;
15358;SDS011;7779;49.596;11.070;2023-04-25T07:01:02;3.40;;;3.10;;
15358;SDS011;7779;49.596;11.070;2023-04-25T07:03:28;3.57;;;3.27;;
15358;SDS011;7779;49.596;11.070;2023-04-25T07:05:58;3.87;;;3.23;;
15358;SDS011;7779;49.596;11.070;2023-04-25T07:08:25;2.67;;;2.40;;
15358;SDS011;7779;49.596;11.070;2023-04-25T07:10:51;3.30;;;2.27;;
15358;SDS011;7779;49.596;11.070;2023-04-25T07:13:16;3.30;;;2.03;;
15358;SDS011;7779;49.596;11.070;2023-04-25T07:15:43;2.73;;;2.20;;
15358;SDS011;7779;49.596;11.070;2023-04-25T07:18:10;2.40;;;2.20;;
15358;SDS011;7779;49.596;11.070;2023-04-25T07:20:35;2.57;;;2.20;;
15358;SDS011;7779;49.596;11.070;2023-04-25T07:23:02;2.47;;;1.93;;
15358;SDS011;7779;49.596;11.070;2023-04-25T07:25:28;2.43;;;1.80;;
15358;SDS011;7779;49.596;11.070;2023-04-25T07:27:54;2.13;;;1.90;;
15358;SDS011;7779;49.596;11.070;2023-04-25T07:30:20;2.33;;;1.77;;
15358;SDS011;7779;49.596;11.070;2023-04-25T07:32:46;3.90;;;1.90;;
15358;SDS011;7779;49.596;11.070;2023-04-25T07:35:12;2.50;;;1.90;;
15358;SDS011;7779;49.596;11.070;2023-04-25T07:37:39;2.07;;;1.80;;
15358;SDS011;7779;49.596;11.070;2023-04-25T07:40:11;2.27;;;1.83;;
15358;SDS011;7779;49.596;11.070;2023-04-25T07:42:43;2.30;;;2.03;;
15358;SDS011;7779;49.596;11.070;2023-04-25T07:45:10;2.13;;;1.70;;
15358;SDS011;7779;49.596;11.070;2023-04-25T07:47:38;2.03;;;1.87;;
15358;SDS011;7779;49.596;11.070;2023-04-25T07:50:05;3.37;;;2.17;;
15358;SDS011;7779;49.596;11.070;2023-04-25T07:52:31;2.53;;;2.20;;
15358;SDS011;7779;49.596;11.070;2023-04-25T07:55:15;3.90;;;2.20;;
15358;SDS011;7779;49.596;11.070;2023-04-25T07:57:56;2.87;;;2.10;;
15358;SDS011;7779;49.596;11.070;2023-04-25T08:00:21;3.27;;;2.00;;
15358;SDS011;7779;49.596;11.070;2023-04-25T08:02:55;2.70;;;2.07;;
15358;SDS011;7779;49.596;11.070;2023-04-25T08:05:21;2.60;;;2.30;;
15358;SDS011;7779;49.596;11.070;2023-04-25T08:07:52;2.53;;;2.33;;
15358;SDS011;7779;49.596;11.070;2023-04-25T08:10:18;3.33;;;2.53;;
15358;SDS011;7779;49.596;11.070;2023-04-25T08:12:46;2.50;;;2.23;;
15358;SDS011;7779;49.596;11.070;2023-04-25T08:15:12;2.50;;;2.30;;
15358;SDS011;7779;49.596;11.070;2023-04-25T08:17:39;3.27;;;2.73;;
15358;SDS011;7779;49.596;11.070;2023-04-25T08:20:05;2.37;;;2.17;;
15358;SDS011;7779;49.596;11.070;2023-04-25T08:22:33;3.40;;;2.97;;
15358;SDS011;7779;49.596;11.070;2023-04-25T08:25:13;2.83;;;2.63;;
15358;SDS011;7779;49.596;11.070;2023-04-25T08:27:39;4.13;;;2.90;;
15358;SDS011;7779;49.596;11.070;2023-04-25T08:30:05;3.33;;;2.90;;
15358;SDS011;7779;49.596;11.070;2023-04-25T08:32:34;3.27;;;2.70;;
15358;SDS011;7779;49.596;11.070;2023-04-25T08:35:20;3.60;;;2.63;;
15358;SDS011;7779;49.596;11.070;2023-04-25T08:37:46;4.57;;;2.90;;
15358;SDS011;7779;49.596;11.070;2023-04-25T08:40:14;3.00;;;2.67;;
15358;SDS011;7779;49.596;11.070;2023-04-25T08:43:11;2.70;;;2.50;;
15358;SDS011;7779;49.596;11.070;2023-04-25T08:45:40;3.80;;;2.80;;
15358;SDS011;7779;49.596;11.070;2023-04-25T08:48:12;3.77;;;3.20;;
15358;SDS011;7779;49.596;11.070;2023-04-25T08:50:44;4.13;;;2.90;;
15358;SDS011;7779;49.596;11.070;2023-04-25T08:53:24;5.47;;;3.27;;
15358;SDS011;7779;49.596;11.070;2023-04-25T08:55:53;3.80;;;3.00;;
15358;SDS011;7779;49.596;11.070;2023-04-25T08:58:21;3.20;;;2.67;;
15358;SDS011;7779;49.596;11.070;2023-04-25T09:00:47;3.37;;;2.63;;
15358;SDS011;7779;49.596;11.070;2023-04-25T09:03:16;3.63;;;3.17;;
15358;SDS011;7779;49.596;11.070;2023-04-25T09:05:46;3.10;;;2.80;;
15358;SDS011;7779;49.596;11.070;2023-04-25T09:08:14;3.17;;;2.87;;
15358;SDS011;7779;49.596;11.070;2023-04-25T09:10:40;3.03;;;2.80;;
15358;SDS011;7779;49.596;11.070;2023-04-25T09:13:07;4.93;;;3.20;;
15358;SDS011;7779;49.596;11.070;2023-04-25T09:15:57;2.63;;;2.43;;
15358;SDS011;7779;49.596;11.070;2023-04-25T09:18:44;2.97;;;2.63;;
15358;SDS011;7779;49.596;11.070;2023-04-25T09:21:12;3.70;;;2.87;;
15358;SDS011;7779;49.596;11.070;2023-04-25T09:23:46;3.80;;;2.67;;
15358;SDS011;7779;49.596;11.070;2023-04-25T09:26:14;4.63;;;2.70;;
15358;SDS011;7779;49.596;11.070;2023-04-25T09:28:43;2.83;;;2.60;;
15358;SDS011;7779;49.596;11.070;2023-04-25T09:31:12;2.80;;;2.50;;
15358;SDS011;7779;49.596;11.070;2023-04-25T09:33:48;3.03;;;2.57;;
15358;SDS011;7779;49.596;11.070;2023-04-25T09:36:13;2.40;;;2.00;;
15358;SDS011;7779;49.596;11.070;2023-04-25T09:39:00;4.13;;;2.00;;
15358;SDS011;7779;49.596;11.070;2023-04-25T09:41:28;2.30;;;2.10;;
15358;SDS011;7779;49.596;11.070;2023-04-25T09:43:58;2.00;;;1.80;;
15358;SDS011;7779;49.596;11.070;2023-04-25T09:46:32;2.57;;;1.90;;
15358;SDS011;7779;49.596;11.070;2023-04-25T09:49:06;1.90;;;1.67;;
15358;SDS011;7779;49.596;11.070;2023-04-25T09:51:40;2.10;;;1.90;;
15358;SDS011;7779;49.596;11.070;2023-04-25T09:54:06;2.63;;;2.10;;
15358;SDS011;7779;49.596;11.070;2023-04-25T09:56:39;1.67;;;1.50;;
15358;SDS011;7779;49.596;11.070;2023-04-25T09:59:06;2.17;;;1.50;;
15358;SDS011;7779;49.596;11.070;2023-04-25T10:01:36;1.50;;;1.40;;
15358;SDS011;7779;49.596;11.070;2023-04-25T10:04:21;2.90;;;1.27;;
15358;SDS011;7779;49.596;11.070;2023-04-25T10:06:57;3.10;;;1.30;;
15358;SDS011;7779;49.596;11.070;2023-04-25T10:09:25;1.40;;;1.20;;
15358;SDS011;7779;49.596;11.070;2023-04-25T10:11:56;1.77;;;1.10;;
15358;SDS011;7779;49.596;11.070;2023-04-25T10:14:23;1.30;;;1.20;;
15358;SDS011;7779;49.596;11.070;2023-04-25T10:16:50;1.60;;;1.07;;
15358;SDS011;7779;49.596;11.070;2023-04-25T10:19:19;1.90;;;1.10;;
15358;SDS011;7779;49.596;11.070;2023-04-25T10:22:07;2.40;;;1.00;;
15358;SDS011;7779;49.596;11.070;2023-04-25T10:24:55;1.20;;;0.97;;
15358;SDS011;7779;49.596;11.070;2023-04-25T10:27:21;0.80;;;0.80;;
15358;SDS011;7779;49.596;11.070;2023-04-25T10:30:00;2.00;;;1.10;;
15358;SDS011;7779;49.596;11.070;2023-04-25T10:32:33;1.47;;;0.90;;
15358;SDS011;7779;49.596;11.070;2023-04-25T10:35:13;1.33;;;1.03;;
15358;SDS011;7779;49.596;11.070;2023-04-25T10:40:35;2.00;;;1.10;;
15358;SDS011;7779;49.596;11.070;2023-04-25T10:46:12;2.60;;;1.10;;
15358;SDS011;7779;49.596;11.070;2023-04-25T10:48:54;2.20;;;1.30;;
15358;SDS011;7779;49.596;11.070;2023-04-25T10:59:18;1.30;;;1.00;;
15358;SDS011;7779;49.596;11.070;2023-04-25T11:01:52;1.97;;;1.10;;
15358;SDS011;7779;49.596;11.070;2023-04-25T11:04:20;1.20;;;0.80;;
15358;SDS011;7779;49.596;11.070;2023-04-25T11:10:03;1.20;;;0.70;;
15358;SDS011;7779;49.596;11.070;2023-04-25T11:12:31;1.53;;;0.70;;
15358;SDS011;7779;49.596;11.070;2023-04-25T11:15:00;2.63;;;0.93;;
15358;SDS011;7779;49.596;11.070;2023-04-25T11:17:28;1.37;;;0.90;;
15358;SDS011;7779;49.596;11.070;2023-04-25T11:19:54;1.77;;;0.87;;
15358;SDS011;7779;49.596;11.070;2023-04-25T11:22:21;0.90;;;0.63;;
15358;SDS011;7779;49.596;11.070;2023-04-25T11:24:48;1.63;;;0.83;;
15358;SDS011;7779;49.596;11.070;2023-04-25T11:27:13;1.50;;;0.70;;
15358;SDS011;7779;49.596;11.070;2023-04-25T11:29:40;1.37;;;0.60;;
15358;SDS011;7779;49.596;11.070;2023-04-25T11:32:06;1.50;;;0.80;;
15358;SDS011;7779;49.596;11.070;2023-04-25T11:34:33;0.80;;;0.73;;
15358;SDS011;7779;49.596;11.070;2023-04-25T11:37:02;0.93;;;0.70;;
15358;SDS011;7779;49.596;11.070;2023-04-25T11:39:29;2.63;;;0.80;;
15358;SDS011;7779;49.596;11.070;2023-04-25T11:41:55;1.80;;;0.70;;
15358;SDS011;7779;49.596;11.070;2023-04-25T11:44:22;0.70;;;0.70;;
15358;SDS011;7779;49.596;11.070;2023-04-25T11:46:48;0.80;;;0.60;;
15358;SDS011;7779;49.596;11.070;2023-04-25T11:49:14;1.33;;;0.87;;
15358;SDS011;7779;49.596;11.070;2023-04-25T11:51:44;0.80;;;0.60;;
15358;SDS011;7779;49.596;11.070;2023-04-25T11:54:12;0.70;;;0.70;;
15358;SDS011;7779;49.596;11.070;2023-04-25T11:56:45;1.17;;;0.70;;
15358;SDS011;7779;49.596;11.070;2023-04-25T11:59:11;0.50;;;0.50;;
15358;SDS011;7779;49.596;11.070;2023-04-25T12:01:38;0.60;;;0.60;;
15358;SDS011;7779;49.596;11.070;2023-04-25T12:04:13;1.23;;;0.70;;
15358;SDS011;7779;49.596;11.070;2023-04-25T12:06:43;1.53;;;0.70;;
15358;SDS011;7779;49.596;11.070;2023-04-25T12:09:13;1.27;;;0.70;;
15358;SDS011;7779;49.596;11.070;2023-04-25T12:11:44;0.60;;;0.50;;
15358;SDS011;7779;49.596;11.070;2023-04-25T12:14:12;0.70;;;0.60;;
15358;SDS011;7779;49.596;11.070;2023-04-25T12:17:01;0.77;;;0.63;;
15358;SDS011;7779;49.596;11.070;2023-04-25T12:19:32;0.67;;;0.60;;
15358;SDS011;7779;49.596;11.070;2023-04-25T12:22:00;0.70;;;0.60;;
15358;SDS011;7779;49.596;11.070;2023-04-25T12:24:32;0.97;;;0.70;;
15358;SDS011;7779;49.596;11.070;2023-04-25T12:29:28;0.93;;;0.60;;
15358;SDS011;7779;49.596;11.070;2023-04-25T12:31:56;0.70;;;0.63;;
15358;SDS011;7779;49.596;11.070;2023-04-25T12:34:23;0.90;;;0.70;;
15358;SDS011;7779;49.596;11.070;2023-04-25T12:36:50;1.20;;;0.77;;
15358;SDS011;7779;49.596;11.070;2023-04-25T12:39:17;1.13;;;0.80;;
15358;SDS011;7779;49.596;11.070;2023-04-25T12:41:45;1.17;;;0.60;;
15358;SDS011;7779;49.596;11.070;2023-04-25T12:44:11;0.90;;;0.80;;
15358;SDS011;7779;49.596;11.070;2023-04-25T12:46:38;1.00;;;0.70;;
15358;SDS011;7779;49.596;11.070;2023-04-25T12:49:04;0.73;;;0.73;;
15358;SDS011;7779;49.596;11.070;2023-04-25T12:51:32;0.73;;;0.73;;
15358;SDS011;7779;49.596;11.070;2023-04-25T12:54:01;1.83;;;0.87;;
15358;SDS011;7779;49.596;11.070;2023-04-25T12:56:29;0.93;;;0.63;;
15358;SDS011;7779;49.596;11.070;2023-04-25T12:58:56;0.90;;;0.90;;
15358;SDS011;7779;49.596;11.070;2023-04-25T13:01:22;1.03;;;0.90;;
15358;SDS011;7779;49.596;11.070;2023-04-25T13:03:49;1.13;;;0.80;;
15358;SDS011;7779;49.596;11.070;2023-04-25T13:06:15;1.40;;;0.90;;
15358;SDS011;7779;49.596;11.070;2023-04-25T13:08:42;0.80;;;0.80;;
15358;SDS011;7779;49.596;11.070;2023-04-25T13:11:08;0.70;;;0.70;;
15358;SDS011;7779;49.596;11.070;2023-04-25T13:13:34;1.47;;;1.10;;
15358;SDS011;7779;49.596;11.070;2023-04-25T13:16:01;1.67;;;0.80;;
15358;SDS011;7779;49.596;11.070;2023-04-25T13:18:28;0.97;;;0.90;;
15358;SDS011;7779;49.596;11.070;2023-04-25T13:20:55;0.97;;;0.87;;
15358;SDS011;7779;49.596;11.070;2023-04-25T13:23:21;1.03;;;0.97;;
15358;SDS011;7779;49.596;11.070;2023-04-25T13:25:48;1.50;;;1.00;;
15358;SDS011;7779;49.596;11.070;2023-04-25T13:28:14;1.20;;;0.80;;
15358;SDS011;7779;49.596;11.070;2023-04-25T13:30:40;1.37;;;0.80;;
15358;SDS011;7779;49.596;11.070;2023-04-25T13:33:07;1.57;;;1.00;;
15358;SDS011;7779;49.596;11.070;2023-04-25T13:35:34;1.33;;;1.20;;
15358;SDS011;7779;49.596;11.070;2023-04-25T13:38:01;0.93;;;0.90;;
15358;SDS011;7779;49.596;11.070;2023-04-25T13:40:27;1.20;;;0.87;;
15358;SDS011;7779;49.596;11.070;2023-04-25T13:42:53;1.47;;;1.00;;
15358;SDS011;7779;49.596;11.070;2023-04-25T13:45:20;1.93;;;0.90;;
15358;SDS011;7779;49.596;11.070;2023-04-25T13:47:46;2.80;;;1.13;;
15358;SDS011;7779;49.596;11.070;2023-04-25T13:50:12;1.50;;;1.23;;
15358;SDS011;7779;49.596;11.070;2023-04-25T13:52:39;1.23;;;1.00;;
15358;SDS011;7779;49.596;11.070;2023-04-25T13:55:05;1.37;;;0.90;;
15358;SDS011;7779;49.596;11.070;2023-04-25T13:57:32;1.10;;;1.00;;
15358;SDS011;7779;49.596;11.070;2023-04-25T13:59:59;2.03;;;1.07;;
15358;SDS011;7779;49.596;11.070;2023-04-25T14:02:31;1.40;;;1.20;;
15358;SDS011;7779;49.596;11.070;2023-04-25T14:04:57;1.20;;;1.00;;
15358;SDS011;7779;49.596;11.070;2023-04-25T14:07:23;1.77;;;1.00;;
15358;SDS011;7779;49.596;11.070;2023-04-25T14:09:49;1.50;;;1.10;;
15358;SDS011;7779;49.596;11.070;2023-04-25T14:12:15;1.50;;;0.97;;
15358;SDS011;7779;49.596;11.070;2023-04-25T14:14:41;1.73;;;1.10;;
15358;SDS011;7779;49.596;11.070;2023-04-25T14:17:08;1.93;;;1.20;;
15358;SDS011;7779;49.596;11.070;2023-04-25T14:19:34;1.40;;;1.20;;
15358;SDS011;7779;49.596;11.070;2023-04-25T14:22:01;1.27;;;1.17;;
15358;SDS011;7779;49.596;11.070;2023-04-25T14:24:27;1.10;;;0.90;;
15358;SDS011;7779;49.596;11.070;2023-04-25T14:26:52;0.83;;;0.83;;
15358;SDS011;7779;49.596;11.070;2023-04-25T14:29:18;1.30;;;1.20;;
15358;SDS011;7779;49.596;11.070;2023-04-25T14:31:44;1.20;;;1.10;;
15358;SDS011;7779;49.596;11.070;2023-04-25T14:34:09;2.60;;;1.47;;
15358;SDS011;7779;49.596;11.070;2023-04-25T14:36:36;1.73;;;1.30;;
15358;SDS011;7779;49.596;11.070;2023-04-25T14:39:02;1.20;;;1.10;;
15358;SDS011;7779;49.596;11.070;2023-04-25T14:41:30;2.17;;;1.40;;
15358;SDS011;7779;49.596;11.070;2023-04-25T14:43:55;1.10;;;1.00;;
15358;SDS011;7779;49.596;11.070;2023-04-25T14:46:22;1.60;;;1.20;;
15358;SDS011;7779;49.596;11.070;2023-04-25T14:48:51;2.20;;;1.20;;
15358;SDS011;7779;49.596;11.070;2023-04-25T14:51:17;1.20;;;1.10;;
15358;SDS011;7779;49.596;11.070;2023-04-25T14:53:42;1.40;;;0.97;;
15358;SDS011;7779;49.596;11.070;2023-04-25T14:56:08;1.47;;;1.00;;
15358;SDS011;7779;49.596;11.070;2023-04-25T14:58:34;1.10;;;1.00;;
15358;SDS011;7779;49.596;11.070;2023-04-25T15:01:00;1.30;;;1.13;;
15358;SDS011;7779;49.596;11.070;2023-04-25T15:03:26;1.30;;;1.20;;
15358;SDS011;7779;49.596;11.070;2023-04-25T15:05:52;1.40;;;1.00;;
15358;SDS011;7779;49.596;11.070;2023-04-25T15:08:20;1.27;;;1.10;;
15358;SDS011;7779;49.596;11.070;2023-04-25T15:10:46;0.93;;;0.83;;
15358;SDS011;7779;49.596;11.070;2023-04-25T15:13:12;1.20;;;0.90;;
15358;SDS011;7779;49.596;11.070;2023-04-25T15:15:38;1.30;;;1.07;;
15358;SDS011;7779;49.596;11.070;2023-04-25T15:18:04;1.17;;;1.07;;
15358;SDS011;7779;49.596;11.070;2023-04-25T15:20:30;2.60;;;1.10;;
15358;SDS011;7779;49.596;11.070;2023-04-25T15:22:56;1.43;;;1.00;;